createdAt,value
2022-11-03T00:00:34.910Z,100991.94
2022-11-03T00:03:02.647Z,100999.13
2022-11-03T00:05:48.130Z,100999.97
2022-11-03T00:08:15.819Z,100991.94
2022-11-03T00:10:43.458Z,100988.19
2022-11-03T00:13:11.191Z,100990.94
2022-11-03T00:15:38.823Z,100987.53
2022-11-03T00:18:06.443Z,100982.91
2022-11-03T00:20:34.096Z,100986.47
2022-11-03T00:23:01.742Z,100980.00
2022-11-03T00:25:29.583Z,100986.47
2022-11-03T00:27:58.218Z,100981.03
2022-11-03T00:30:25.877Z,100983.75
2022-11-03T00:32:53.563Z,100975.56
2022-11-03T00:35:21.222Z,100981.03
2022-11-03T00:37:48.881Z,100978.28
2022-11-03T00:40:16.936Z,100979.34
2022-11-03T00:42:44.679Z,100975.75
2022-11-03T00:45:12.298Z,100985.84
2022-11-03T00:48:00.288Z,100985.63
2022-11-03T00:50:27.992Z,100982.22
2022-11-03T00:52:55.683Z,100986.84
2022-11-03T00:55:23.614Z,100987.69
2022-11-03T00:57:52.843Z,100979.50
2022-11-03T01:00:20.611Z,100977.81
2022-11-03T01:02:48.198Z,100986.00
2022-11-03T01:05:33.457Z,100985.16
2022-11-03T01:08:01.488Z,100977.97
2022-11-03T01:10:29.263Z,100968.78
2022-11-03T01:12:56.896Z,100975.25
2022-11-03T01:15:24.581Z,100971.50
2022-11-03T01:17:52.252Z,100968.78
2022-11-03T01:20:19.900Z,100972.34
2022-11-03T01:22:47.495Z,100963.47
2022-11-03T01:25:15.168Z,100964.31
2022-11-03T01:27:42.814Z,100960.75
2022-11-03T01:30:10.572Z,100951.72
2022-11-03T01:32:38.287Z,100950.03
2022-11-03T01:35:06.097Z,100949.00
2022-11-03T01:37:33.736Z,100951.56
2022-11-03T01:40:01.422Z,100946.94
2022-11-03T01:42:29.099Z,100940.81
2022-11-03T01:47:59.969Z,100947.31
2022-11-03T01:50:28.281Z,100937.22
2022-11-03T01:52:56.018Z,100928.19
2022-11-03T01:55:23.909Z,100934.50
2022-11-03T01:57:51.751Z,100931.78
2022-11-03T02:00:19.659Z,100934.31
2022-11-03T02:02:47.483Z,100915.38
2022-11-03T02:05:15.870Z,100911.81
2022-11-03T02:07:43.807Z,100908.22
2022-11-03T02:10:11.800Z,100903.63
2022-11-03T02:12:39.511Z,100900.91
2022-11-03T02:15:07.213Z,100898.16
2022-11-03T02:17:34.956Z,100902.75
2022-11-03T02:20:02.728Z,100898.50
2022-11-03T02:22:30.394Z,100893.06
2022-11-03T02:24:58.064Z,100878.56
2022-11-03T02:27:25.868Z,100881.28
2022-11-03T02:29:54.981Z,100877.72
2022-11-03T02:32:22.661Z,100877.72
2022-11-03T02:34:50.591Z,100870.56
2022-11-03T02:37:18.267Z,100874.97
2022-11-03T02:39:46.202Z,100864.06
2022-11-03T02:42:13.883Z,100866.13
2022-11-03T02:44:41.601Z,100852.31
2022-11-03T02:47:09.305Z,100855.19
2022-11-03T02:49:37.003Z,100851.63
2022-11-03T02:52:04.709Z,100844.28
2022-11-03T02:54:32.415Z,100848.72
2022-11-03T02:57:00.122Z,100842.41
2022-11-03T02:59:27.792Z,100837.81
2022-11-03T03:01:55.621Z,100840.53
2022-11-03T03:04:23.583Z,100839.50
2022-11-03T03:06:51.320Z,100837.81
2022-11-03T03:09:18.997Z,100829.63
2022-11-03T03:11:46.802Z,100831.47
2022-11-03T03:14:14.561Z,100824.16
2022-11-03T03:16:42.278Z,100822.28
2022-11-03T03:19:09.992Z,100820.56
2022-11-03T03:21:37.708Z,100814.09
2022-11-03T03:24:05.463Z,100818.72
2022-11-03T03:26:33.371Z,100805.91
2022-11-03T03:29:01.084Z,100800.63
2022-11-03T03:31:29.006Z,100799.94
2022-11-03T03:34:04.463Z,100798.94
2022-11-03T03:36:38.109Z,100796.38
2022-11-03T03:39:05.836Z,100793.66
2022-11-03T03:41:33.796Z,100797.22
2022-11-03T03:44:01.495Z,100791.75
2022-11-03T03:46:29.389Z,100789.22
2022-11-03T03:48:57.064Z,100783.78
2022-11-03T03:51:25.276Z,100783.78
2022-11-03T03:53:53.189Z,100780.00
2022-11-03T03:56:20.956Z,100770.81
2022-11-03T03:58:48.690Z,100769.09
2022-11-03T04:01:16.476Z,100770.97
2022-11-03T04:03:44.242Z,100769.28
2022-11-03T04:06:11.995Z,100767.41
2022-11-03T04:08:39.722Z,100773.69
2022-11-03T04:11:24.800Z,100773.69
2022-11-03T04:14:09.942Z,100775.59
2022-11-03T04:16:55.144Z,100770.97
2022-11-03T04:19:40.568Z,100778.09
2022-11-03T04:22:17.650Z,100767.41
2022-11-03T04:24:45.294Z,100761.09
2022-11-03T04:27:13.112Z,100768.25
2022-11-03T04:29:40.826Z,100766.56
2022-11-03T04:32:08.865Z,100753.91
2022-11-03T04:34:36.703Z,100770.13
2022-11-03T04:37:04.398Z,100753.56
2022-11-03T04:39:32.123Z,100762.41
2022-11-03T04:42:00.133Z,100751.50
2022-11-03T04:44:27.812Z,100744.34
2022-11-03T04:46:55.479Z,100743.31
2022-11-03T04:49:23.323Z,100740.56
2022-11-03T04:51:51.212Z,100741.63
2022-11-03T04:54:18.954Z,100741.41
2022-11-03T04:56:46.755Z,100741.25
2022-11-03T04:59:14.422Z,100742.28
2022-11-03T05:01:42.195Z,100735.97
2022-11-03T05:04:09.976Z,100736.84
2022-11-03T05:06:37.768Z,100739.56
2022-11-03T05:09:05.698Z,100733.22
2022-11-03T05:11:33.411Z,100732.38
2022-11-03T05:14:01.132Z,100736.16
2022-11-03T05:16:28.875Z,100738.88
2022-11-03T05:18:56.565Z,100736.84
2022-11-03T05:21:24.335Z,100740.56
2022-11-03T05:23:52.184Z,100723.34
2022-11-03T05:26:19.990Z,100718.75
2022-11-03T05:28:47.738Z,100715.00
2022-11-03T05:31:15.553Z,100713.94
2022-11-03T05:33:45.082Z,100717.72
2022-11-03T05:36:12.748Z,100717.53
2022-11-03T05:38:40.515Z,100709.34
2022-11-03T05:41:08.232Z,100716.69
2022-11-03T05:43:35.926Z,100711.22
2022-11-03T05:46:03.971Z,100716.69
2022-11-03T05:48:31.782Z,100717.34
2022-11-03T05:51:00.509Z,100711.91
2022-11-03T05:53:28.206Z,100707.44
2022-11-03T05:55:55.951Z,100709.16
2022-11-03T05:58:24.217Z,100706.44
2022-11-03T06:00:51.969Z,100709.16
2022-11-03T06:03:19.915Z,100699.94
2022-11-03T06:05:47.659Z,100697.88
2022-11-03T06:08:15.673Z,100698.03
2022-11-03T06:10:43.489Z,100695.13
2022-11-03T06:13:11.213Z,100686.28
2022-11-03T06:15:38.933Z,100684.41
2022-11-03T06:18:06.617Z,100694.09
2022-11-03T06:20:34.316Z,100679.81
2022-11-03T06:23:02.060Z,100680.66
2022-11-03T06:25:29.781Z,100677.91
2022-11-03T06:27:57.571Z,100678.94
2022-11-03T06:30:25.363Z,100676.22
2022-11-03T06:32:53.105Z,100677.06
2022-11-03T06:35:21.189Z,100681.97
2022-11-03T06:37:48.891Z,100677.00
2022-11-03T06:40:16.555Z,100682.63
2022-11-03T06:42:44.375Z,100677.38
2022-11-03T06:45:12.137Z,100672.09
2022-11-03T06:47:39.842Z,100671.25
2022-11-03T06:50:07.663Z,100672.25
2022-11-03T06:52:35.486Z,100665.13
2022-11-03T06:55:04.173Z,100666.16
2022-11-03T06:57:31.904Z,100663.44
2022-11-03T07:00:13.440Z,100671.41
2022-11-03T07:02:47.355Z,100662.38
2022-11-03T07:05:21.837Z,100653.53
2022-11-03T07:07:49.552Z,100652.50
2022-11-03T07:10:17.268Z,100664.28
2022-11-03T07:12:45.122Z,100649.78
2022-11-03T07:15:13.024Z,100650.81
2022-11-03T07:17:41.054Z,100654.38
2022-11-03T07:20:08.867Z,100650.41
2022-11-03T07:22:36.710Z,100641.38
2022-11-03T07:25:04.462Z,100644.13
2022-11-03T07:27:32.219Z,100647.69
2022-11-03T07:29:59.997Z,100644.13
2022-11-03T07:32:27.788Z,100639.72
2022-11-03T07:34:55.559Z,100643.28
2022-11-03T07:37:24.856Z,100640.38
2022-11-03T07:39:52.518Z,100637.81
2022-11-03T07:42:20.859Z,100638.50
2022-11-03T07:44:48.734Z,100632.81
2022-11-03T07:47:16.630Z,100641.00
2022-11-03T07:49:44.367Z,100631.97
2022-11-03T07:52:12.285Z,100618.34
2022-11-03T07:54:40.076Z,100613.72
2022-11-03T07:57:07.917Z,100605.72
2022-11-03T07:59:35.688Z,100607.41
2022-11-03T08:02:04.091Z,100592.09
2022-11-03T08:04:32.128Z,100601.78
2022-11-03T08:06:59.894Z,100586.41
2022-11-03T08:09:28.136Z,100583.69
2022-11-03T08:11:56.008Z,100580.13
2022-11-03T08:14:23.700Z,100579.28
2022-11-03T08:16:51.477Z,100578.22
2022-11-03T08:19:19.215Z,100581.16
2022-11-03T08:21:46.885Z,100569.19
2022-11-03T08:24:14.688Z,100566.47
2022-11-03T08:26:42.422Z,100562.91
2022-11-03T08:29:10.186Z,100560.84
2022-11-03T08:31:37.903Z,100556.59
2022-11-03T08:34:05.548Z,100555.56
2022-11-03T08:36:33.304Z,100553.88
2022-11-03T08:39:01.215Z,100544.63
2022-11-03T08:41:28.944Z,100541.91
2022-11-03T08:43:56.855Z,100541.06
2022-11-03T08:46:24.624Z,100536.66
2022-11-03T08:48:52.749Z,100537.50
2022-11-03T08:51:20.508Z,100532.03
2022-11-03T08:53:50.746Z,100531.00
2022-11-03T08:56:21.982Z,100521.97
2022-11-03T08:58:50.461Z,100526.56
2022-11-03T09:01:18.203Z,100515.66
2022-11-03T09:03:45.989Z,100508.31
2022-11-03T09:06:13.746Z,100501.81
2022-11-03T09:11:29.351Z,100503.03
2022-11-03T09:13:58.126Z,100497.56
2022-11-03T09:16:26.419Z,100499.28
2022-11-03T09:18:54.447Z,100487.31
2022-11-03T09:21:22.166Z,100489.22
2022-11-03T09:23:50.025Z,100488.38
2022-11-03T09:26:17.839Z,100485.63
2022-11-03T09:28:45.621Z,100473.00
2022-11-03T09:31:13.541Z,100479.34
2022-11-03T09:33:41.302Z,100475.72
2022-11-03T09:36:09.108Z,100465.88
2022-11-03T09:38:36.832Z,100462.09
2022-11-03T09:41:09.772Z,100458.53
2022-11-03T09:43:47.182Z,100446.75
2022-11-03T09:46:15.188Z,100451.38
2022-11-03T09:48:42.930Z,100446.09
2022-11-03T09:51:10.689Z,100438.75
2022-11-03T09:53:38.500Z,100438.75
2022-11-03T09:56:06.221Z,100430.56
2022-11-03T09:58:33.896Z,100427.84
2022-11-03T10:01:01.673Z,100422.38
2022-11-03T10:03:29.538Z,100427.00
2022-11-03T10:05:57.235Z,100414.00
2022-11-03T10:08:24.933Z,100411.28
2022-11-03T10:10:52.620Z,100403.09
2022-11-03T10:13:20.416Z,100400.19
2022-11-03T10:15:48.230Z,100396.59
2022-11-03T10:18:16.183Z,100393.00
2022-11-03T10:20:43.902Z,100385.50
2022-11-03T10:23:11.658Z,100386.16
2022-11-03T10:25:39.353Z,100378.97
2022-11-03T10:28:10.421Z,100378.78
2022-11-03T10:30:58.184Z,100364.31
2022-11-03T10:33:29.892Z,100359.03
2022-11-03T10:35:57.690Z,100353.38
2022-11-03T10:38:25.563Z,100355.28
2022-11-03T10:40:53.303Z,100349.81
2022-11-03T10:43:21.145Z,100358.00
2022-11-03T10:45:49.734Z,100350.44
2022-11-03T10:48:17.690Z,100348.38
2022-11-03T10:50:45.372Z,100341.25
2022-11-03T10:53:13.456Z,100340.59
2022-11-03T10:55:41.276Z,100333.44
2022-11-03T10:58:09.176Z,100335.97
2022-11-03T11:00:37.176Z,100331.34
2022-11-03T11:03:05.252Z,100322.13
2022-11-03T11:05:33.441Z,100315.84
2022-11-03T11:08:02.295Z,100314.97
2022-11-03T11:10:30.168Z,100301.31
2022-11-03T11:12:57.969Z,100310.38
2022-11-03T11:15:25.788Z,100310.38
2022-11-03T11:17:53.510Z,100298.59
2022-11-03T11:20:22.738Z,100297.75
2022-11-03T11:22:50.459Z,100294.19
2022-11-03T11:25:18.550Z,100287.03
2022-11-03T11:27:46.229Z,100295.25
2022-11-03T11:30:14.004Z,100288.91
2022-11-03T11:32:41.815Z,100267.28
2022-11-03T11:35:09.889Z,100264.75
2022-11-03T11:37:37.769Z,100262.84
2022-11-03T11:40:05.493Z,100252.59
2022-11-03T11:42:36.364Z,100257.03
2022-11-03T11:45:06.551Z,100248.84
2022-11-03T11:47:34.302Z,100244.41
2022-11-03T11:50:02.017Z,100249.84
2022-11-03T11:52:29.690Z,100236.44
2022-11-03T11:54:57.486Z,100241.88
2022-11-03T11:57:25.195Z,100238.94
2022-11-03T11:59:53.021Z,100231.81
2022-11-03T12:02:20.729Z,100228.03
2022-11-03T12:04:48.422Z,100220.88
2022-11-03T12:07:16.308Z,100206.41
2022-11-03T12:09:45.382Z,100191.72
2022-11-03T12:12:13.050Z,100187.91
2022-11-03T12:14:40.693Z,100185.84
2022-11-03T12:17:08.439Z,100177.66
2022-11-03T12:19:36.155Z,100175.97
2022-11-03T12:22:03.902Z,100168.81
2022-11-03T12:24:31.679Z,100172.59
2022-11-03T12:26:59.385Z,100155.38
2022-11-03T12:29:27.117Z,100147.19
2022-11-03T12:31:54.843Z,100153.31
2022-11-03T12:34:22.761Z,100150.97
2022-11-03T12:36:55.715Z,100137.13
2022-11-03T12:39:23.998Z,100132.72
2022-11-03T12:41:51.770Z,100126.38
2022-11-03T12:44:19.535Z,100110.00
2022-11-03T12:46:47.341Z,100104.38
2022-11-03T12:49:15.083Z,100094.50
2022-11-03T12:51:42.819Z,100095.75
2022-11-03T12:54:10.660Z,100084.84
2022-11-03T12:56:40.584Z,100084.84
2022-11-03T12:59:08.292Z,100081.47
2022-11-03T13:01:36.094Z,100083.13
2022-11-03T13:04:05.912Z,100077.69
2022-11-03T13:06:33.599Z,100078.50
2022-11-03T13:09:01.311Z,100068.47
2022-11-03T13:11:46.352Z,100069.50
2022-11-03T13:14:14.574Z,100047.41
2022-11-03T13:16:42.323Z,100051.44
2022-11-03T13:19:10.892Z,100045.97
2022-11-03T13:21:38.664Z,100045.75
2022-11-03T13:24:06.344Z,100041.19
2022-11-03T13:26:34.228Z,100043.69
2022-11-03T13:29:01.920Z,100048.31
2022-11-03T13:31:29.669Z,100034.66
2022-11-03T13:33:57.522Z,100021.84
2022-11-03T13:36:25.326Z,100014.06
2022-11-03T13:38:53.083Z,100009.44
2022-11-03T13:41:20.771Z,100001.25
2022-11-03T13:43:48.459Z,99990.34
2022-11-03T13:46:16.160Z,99982.16
2022-11-03T13:51:31.752Z,99974.81
2022-11-03T13:59:35.096Z,99964.13
2022-11-03T14:04:50.501Z,99942.69
2022-11-03T14:07:18.194Z,99935.34
2022-11-03T14:09:46.038Z,99929.06
2022-11-03T14:12:31.885Z,99922.53
2022-11-03T14:14:59.766Z,99916.44
2022-11-03T14:17:27.483Z,99921.47
2022-11-03T14:20:00.830Z,99922.53
2022-11-03T14:22:31.795Z,99919.16
2022-11-03T14:24:59.622Z,99922.72
2022-11-03T14:27:27.429Z,99918.16
2022-11-03T14:29:55.197Z,99917.09
2022-11-03T14:32:22.917Z,99906.38
2022-11-03T14:34:50.668Z,99904.69
2022-11-03T14:37:18.626Z,99903.03
2022-11-03T14:39:46.336Z,99903.03
2022-11-03T14:42:15.760Z,99888.31
2022-11-03T14:44:43.806Z,99879.31
2022-11-03T14:47:11.580Z,99864.88
2022-11-03T14:49:39.259Z,99870.53
2022-11-03T14:52:07.382Z,99859.94
2022-11-03T14:54:35.254Z,99847.91
2022-11-03T14:57:03.050Z,99839.47
2022-11-03T14:59:30.803Z,99844.56
2022-11-03T15:01:58.788Z,99835.50
2022-11-03T15:04:26.585Z,99832.72
2022-11-03T15:06:54.487Z,99822.00
2022-11-03T15:09:22.254Z,99825.75
2022-11-03T15:11:49.990Z,99816.69
2022-11-03T15:14:17.670Z,99810.63
2022-11-03T15:16:46.223Z,99808.34
2022-11-03T15:19:14.188Z,99808.16
2022-11-03T15:21:41.931Z,99807.91
2022-11-03T15:26:57.531Z,99820.28
2022-11-03T15:29:25.235Z,99812.06
2022-11-03T15:31:52.966Z,99798.53
2022-11-03T15:34:20.632Z,99802.34
2022-11-03T15:36:48.311Z,99804.78
2022-11-03T15:39:16.104Z,99799.13
2022-11-03T15:41:43.965Z,99785.84
2022-11-03T15:44:11.627Z,99777.78
2022-11-03T15:46:39.322Z,99777.13
2022-11-03T15:49:06.995Z,99773.19
2022-11-03T15:51:34.698Z,99771.50
2022-11-03T15:54:02.563Z,99769.00
2022-11-03T15:56:32.973Z,99761.72
2022-11-03T15:59:05.834Z,99767.75
2022-11-03T16:01:33.809Z,99764.47
2022-11-03T16:04:01.528Z,99754.09
2022-11-03T16:07:01.190Z,99755.34
2022-11-03T16:09:16.879Z,99743.34
2022-11-03T16:11:44.805Z,99745.72
2022-11-03T16:14:13.278Z,99742.66
2022-11-03T16:16:41.205Z,99734.28
2022-11-03T16:19:10.391Z,99726.59
2022-11-03T16:21:38.073Z,99714.72
2022-11-03T16:24:05.804Z,99709.81
2022-11-03T16:26:33.494Z,99704.03
2022-11-03T16:29:01.356Z,99709.22
2022-11-03T16:31:31.678Z,99697.31
2022-11-03T16:34:01.121Z,99694.25
2022-11-03T16:36:31.221Z,99683.59
2022-11-03T16:38:58.882Z,99686.84
2022-11-03T16:41:26.634Z,99676.81
2022-11-03T16:43:54.367Z,99672.47
2022-11-03T16:46:22.074Z,99670.03
2022-11-03T16:48:49.845Z,99664.84
2022-11-03T16:51:17.587Z,99654.78
2022-11-03T16:53:45.238Z,99654.00
2022-11-03T16:56:12.944Z,99652.38
2022-11-03T16:58:40.862Z,99648.63
2022-11-03T17:01:08.587Z,99641.53
2022-11-03T17:03:36.310Z,99631.47
2022-11-03T17:06:04.067Z,99634.03
2022-11-03T17:08:51.965Z,99625.44
2022-11-03T17:11:36.195Z,99626.78
2022-11-03T17:14:04.699Z,99633.34
2022-11-03T17:16:35.205Z,99631.06
2022-11-03T17:19:02.871Z,99621.03
2022-11-03T17:21:30.567Z,99606.97
2022-11-03T17:24:00.317Z,99601.31
2022-11-03T17:26:28.130Z,99590.81
2022-11-03T17:28:59.750Z,99578.38
2022-11-03T17:31:28.032Z,99586.00
2022-11-03T17:33:57.606Z,99588.94
2022-11-03T17:36:25.326Z,99589.38
2022-11-03T17:38:53.044Z,99582.66
2022-11-03T17:41:20.923Z,99579.53
2022-11-03T17:43:48.688Z,99582.94
2022-11-03T17:46:16.378Z,99582.31
2022-11-03T17:48:44.225Z,99569.72
2022-11-03T17:51:13.870Z,99571.81
2022-11-03T17:53:41.585Z,99558.81
2022-11-03T17:56:29.135Z,99559.66
2022-11-03T17:58:57.174Z,99561.16
2022-11-03T18:01:25.054Z,99558.41
2022-11-03T18:03:53.141Z,99568.53
2022-11-03T18:06:20.812Z,99556.13
2022-11-03T18:08:48.515Z,99548.81
2022-11-03T18:11:36.216Z,99547.75
2022-11-03T18:14:02.887Z,99545.47
2022-11-03T18:16:31.363Z,99542.13
2022-11-03T18:18:59.093Z,99531.19
2022-11-03T18:21:26.928Z,99527.81
2022-11-03T18:23:55.638Z,99525.53
2022-11-03T18:26:23.478Z,99520.28
2022-11-03T18:28:51.217Z,99519.44
2022-11-03T18:31:19.014Z,99516.09
2022-11-03T18:33:46.763Z,99500.56
2022-11-03T18:36:15.235Z,99506.25
2022-11-03T18:38:43.056Z,99504.34
2022-11-03T18:41:30.935Z,99486.50
2022-11-03T18:43:59.135Z,99489.47
2022-11-03T18:46:26.988Z,99474.94
2022-11-03T18:48:54.793Z,99481.25
2022-11-03T18:51:22.745Z,99478.75
2022-11-03T18:53:50.541Z,99475.19
2022-11-03T18:56:18.277Z,99481.91
2022-11-03T18:58:45.961Z,99475.38
2022-11-03T19:01:15.851Z,99468.25
2022-11-03T19:03:43.701Z,99461.34
2022-11-03T19:06:11.351Z,99452.31
2022-11-03T19:08:39.348Z,99446.44
2022-11-03T19:11:07.093Z,99438.69
2022-11-03T19:13:34.793Z,99422.53
2022-11-03T19:16:02.458Z,99430.91
2022-11-03T19:18:30.297Z,99426.53
2022-11-03T19:20:58.301Z,99425.91
2022-11-03T19:23:25.969Z,99426.72
2022-11-03T19:25:53.808Z,99418.75
2022-11-03T19:28:21.464Z,99417.09
2022-11-03T19:30:51.873Z,99420.88
2022-11-03T19:33:23.799Z,99425.47
2022-11-03T19:35:51.778Z,99410.78
2022-11-03T19:38:19.514Z,99410.78
2022-11-03T19:41:01.047Z,99403.63
2022-11-03T19:43:34.163Z,99404.50
2022-11-03T19:46:02.383Z,99393.78
2022-11-03T19:48:30.488Z,99390.22
2022-11-03T19:50:58.532Z,99379.31
2022-11-03T19:53:26.714Z,99376.56
2022-11-03T19:55:54.404Z,99374.06
2022-11-03T19:58:22.161Z,99372.38
2022-11-03T20:00:49.958Z,99378.91
2022-11-03T20:03:17.960Z,99381.66
2022-11-03T20:05:49.338Z,99380.59
2022-11-03T20:08:18.414Z,99382.47
2022-11-03T20:10:47.940Z,99374.28
2022-11-03T20:13:15.974Z,99384.38
2022-11-03T20:15:44.058Z,99368.00
2022-11-03T20:18:12.428Z,99370.72
2022-11-03T20:20:40.277Z,99368.22
2022-11-03T20:23:08.859Z,99360.84
2022-11-03T20:25:36.781Z,99362.53
2022-11-03T20:28:04.579Z,99361.69
2022-11-03T20:30:32.270Z,99353.28
2022-11-03T20:32:59.929Z,99349.72
2022-11-03T20:35:27.954Z,99344.47
2022-11-03T20:37:55.786Z,99337.97
2022-11-03T20:40:23.601Z,99337.09
2022-11-03T20:42:51.380Z,99338.19
2022-11-03T20:45:19.104Z,99344.47
2022-11-03T20:47:48.325Z,99340.06
2022-11-03T20:50:16.467Z,99342.19
2022-11-03T20:52:44.209Z,99344.91
2022-11-03T20:55:12.967Z,99339.47
2022-11-03T20:57:40.691Z,99330.19
2022-11-03T21:00:08.580Z,99328.53
2022-11-03T21:02:36.751Z,99321.63
2022-11-03T21:05:04.869Z,99329.81
2022-11-03T21:07:32.727Z,99320.19
2022-11-03T21:10:00.614Z,99317.44
2022-11-03T21:12:28.768Z,99316.81
2022-11-03T21:15:14.160Z,99320.00
2022-11-03T21:17:59.653Z,99305.72
2022-11-03T21:20:27.733Z,99300.50
2022-11-03T21:22:55.577Z,99308.06
2022-11-03T21:25:24.038Z,99316.25
2022-11-03T21:27:53.555Z,99308.28
2022-11-03T21:30:23.062Z,99307.25
2022-11-03T21:32:50.793Z,99303.44
2022-11-03T21:35:19.274Z,99297.16
2022-11-03T21:37:47.176Z,99311.00
2022-11-03T21:40:14.996Z,99309.97
2022-11-03T21:43:00.417Z,99311.00
2022-11-03T21:45:28.166Z,99317.53
2022-11-03T21:48:14.615Z,99332.03
2022-11-03T21:50:42.878Z,99332.22
2022-11-03T21:53:10.959Z,99336.84
2022-11-03T21:55:39.074Z,99334.97
2022-11-03T21:58:06.727Z,99331.63
2022-11-03T22:03:02.187Z,99325.31
2022-11-03T22:05:30.237Z,99324.03
2022-11-03T22:07:58.016Z,99322.59
2022-11-03T22:10:25.984Z,99316.28
2022-11-03T22:15:42.086Z,99308.09
2022-11-03T22:18:09.973Z,99308.09
2022-11-03T22:20:55.432Z,99309.19
2022-11-03T22:23:40.687Z,99302.91
2022-11-03T22:26:26.154Z,99291.16
2022-11-03T22:29:24.113Z,99290.28
2022-11-03T22:31:50.834Z,99286.72
2022-11-03T22:34:36.293Z,99288.41
2022-11-03T22:37:04.062Z,99286.72
2022-11-03T22:39:49.260Z,99286.72
2022-11-03T22:42:34.798Z,99276.88
2022-11-03T22:45:20.326Z,99271.41
2022-11-03T22:47:48.061Z,99268.06
2022-11-03T22:50:15.811Z,99265.13
2022-11-03T22:52:43.485Z,99250.63
2022-11-03T22:55:10.217Z,99243.91
2022-11-03T22:57:38.102Z,99237.59
2022-11-03T23:00:06.806Z,99232.16
2022-11-03T23:02:36.487Z,99232.16
2022-11-03T23:05:04.377Z,99226.94
2022-11-03T23:07:35.804Z,99226.69
2022-11-03T23:10:06.366Z,99224.22
2022-11-03T23:12:34.178Z,99231.53
2022-11-03T23:15:19.372Z,99236.41
2022-11-03T23:18:04.795Z,99234.72
2022-11-03T23:20:50.133Z,99242.28
2022-11-03T23:23:31.775Z,99231.59
2022-11-03T23:25:59.427Z,99237.06
2022-11-03T23:28:27.121Z,99238.97
2022-11-03T23:33:23.359Z,99254.47
2022-11-03T23:35:56.648Z,99254.47
2022-11-03T23:38:24.369Z,99259.91
2022-11-03T23:40:52.226Z,99258.25
2022-11-03T23:43:21.944Z,99251.97
2022-11-03T23:46:07.403Z,99257.44
2022-11-03T23:48:47.057Z,99243.16
2022-11-03T23:51:15.290Z,99236.06
2022-11-03T23:53:42.984Z,99213.16
2022-11-03T23:56:28.438Z,99215.88
2022-11-03T23:58:56.154Z,99225.13
